createdAt,value
2022-10-04T00:01:12.650Z,13.68
2022-10-04T00:03:53.644Z,13.81
2022-10-04T00:06:23.604Z,13.68
2022-10-04T00:08:58.741Z,13.84
2022-10-04T00:11:30.384Z,13.88
2022-10-04T00:14:00.262Z,13.86
2022-10-04T00:16:33.429Z,13.86
2022-10-04T00:19:21.727Z,13.89
2022-10-04T00:22:13.054Z,13.93
2022-10-04T00:25:17.453Z,13.92
2022-10-04T00:28:24.470Z,13.82
2022-10-04T00:31:15.748Z,13.76
2022-10-04T00:33:51.991Z,13.76
2022-10-04T00:36:25.273Z,13.67
2022-10-04T00:39:07.808Z,13.66
2022-10-04T00:41:58.826Z,13.68
2022-10-04T00:44:55.273Z,13.67
2022-10-04T00:47:44.622Z,13.82
2022-10-04T00:50:18.365Z,13.72
2022-10-04T00:52:50.439Z,13.62
2022-10-04T00:55:39.461Z,13.68
2022-10-04T00:58:23.420Z,13.69
2022-10-04T01:00:52.814Z,13.67
2022-10-04T01:03:32.996Z,13.60
2022-10-04T01:06:01.236Z,13.60
2022-10-04T01:08:35.814Z,13.63
2022-10-04T01:11:19.664Z,13.75
2022-10-04T01:13:58.710Z,13.73
2022-10-04T01:16:27.972Z,13.68
2022-10-04T01:18:56.255Z,13.72
2022-10-04T01:21:27.336Z,13.74
2022-10-04T01:23:57.508Z,13.84
2022-10-04T01:26:32.433Z,13.73
2022-10-04T01:29:21.346Z,13.65
2022-10-04T01:31:50.701Z,13.73
2022-10-04T01:34:22.963Z,13.61
2022-10-04T01:36:52.794Z,13.61
2022-10-04T01:39:22.196Z,13.54
2022-10-04T01:42:05.251Z,13.65
2022-10-04T01:44:46.200Z,13.71
2022-10-04T01:47:18.957Z,13.66
2022-10-04T01:49:46.903Z,13.49
2022-10-04T01:52:18.367Z,13.65
2022-10-04T01:54:49.209Z,13.72
2022-10-04T01:57:19.559Z,13.67
2022-10-04T01:59:58.144Z,13.15
2022-10-04T02:02:35.631Z,13.30
2022-10-04T02:05:06.482Z,13.44
2022-10-04T02:07:34.274Z,13.48
2022-10-04T02:10:04.751Z,13.49
2022-10-04T02:12:34.092Z,13.55
2022-10-04T02:15:03.353Z,13.33
2022-10-04T02:17:33.556Z,13.13
2022-10-04T02:20:01.456Z,13.16
2022-10-04T02:22:28.937Z,13.18
2022-10-04T02:24:56.910Z,13.15
2022-10-04T02:27:31.980Z,13.06
2022-10-04T02:30:04.495Z,13.13
2022-10-04T02:32:51.388Z,13.01
2022-10-04T02:35:19.876Z,12.80
2022-10-04T02:37:50.091Z,12.70
2022-10-04T02:40:18.275Z,12.89
2022-10-04T02:43:00.393Z,13.21
2022-10-04T02:45:41.145Z,13.44
2022-10-04T02:48:21.793Z,13.12
2022-10-04T02:50:52.090Z,13.02
2022-10-04T02:53:26.556Z,13.15
2022-10-04T02:55:57.656Z,13.39
2022-10-04T02:58:26.049Z,13.54
2022-10-04T03:00:59.700Z,13.23
2022-10-04T03:03:39.413Z,13.32
2022-10-04T03:06:10.661Z,13.24
2022-10-04T03:08:37.911Z,13.30
2022-10-04T03:11:05.483Z,13.10
2022-10-04T03:13:33.113Z,13.14
2022-10-04T03:16:00.983Z,13.02
2022-10-04T03:18:29.783Z,13.04
2022-10-04T03:20:57.501Z,12.97
2022-10-04T03:23:24.858Z,12.67
2022-10-04T03:25:53.202Z,12.76
2022-10-04T03:28:20.728Z,12.91
2022-10-04T03:30:51.310Z,12.95
2022-10-04T03:33:23.147Z,13.07
2022-10-04T03:35:53.200Z,12.99
2022-10-04T03:38:21.680Z,13.07
2022-10-04T03:40:56.262Z,13.04
2022-10-04T03:43:31.698Z,13.13
2022-10-04T03:46:00.976Z,12.81
2022-10-04T03:48:35.405Z,12.99
2022-10-04T03:51:05.437Z,12.83
2022-10-04T03:53:43.028Z,12.78
2022-10-04T03:56:19.891Z,12.83
2022-10-04T03:58:49.347Z,12.99
2022-10-04T04:01:34.997Z,13.08
2022-10-04T04:04:23.512Z,13.03
2022-10-04T04:07:03.384Z,12.95
2022-10-04T04:09:45.429Z,13.06
2022-10-04T04:12:27.938Z,12.85
2022-10-04T04:14:55.175Z,12.63
2022-10-04T04:17:43.089Z,12.33
2022-10-04T04:20:20.339Z,12.39
2022-10-04T04:22:56.590Z,12.43
2022-10-04T04:25:24.991Z,12.61
2022-10-04T04:27:56.599Z,12.80
2022-10-04T04:30:24.083Z,12.87
2022-10-04T04:32:52.660Z,12.76
2022-10-04T04:35:26.266Z,12.78
2022-10-04T04:38:15.254Z,12.75
2022-10-04T04:40:43.034Z,12.75
2022-10-04T04:43:15.011Z,12.66
2022-10-04T04:45:42.616Z,12.87
2022-10-04T04:48:13.796Z,12.90
2022-10-04T04:50:41.401Z,12.87
2022-10-04T04:53:09.584Z,12.93
2022-10-04T04:56:02.916Z,12.93
2022-10-04T04:58:35.433Z,12.92
2022-10-04T05:01:20.062Z,12.94
2022-10-04T05:04:08.443Z,13.02
2022-10-04T05:06:37.626Z,12.93
2022-10-04T05:09:05.945Z,12.91
2022-10-04T05:11:37.218Z,12.60
2022-10-04T05:14:12.144Z,12.68
2022-10-04T05:16:57.610Z,12.85
2022-10-04T05:19:31.224Z,12.86
2022-10-04T05:22:01.155Z,12.81
2022-10-04T05:24:33.653Z,12.88
2022-10-04T05:27:06.196Z,12.98
2022-10-04T05:29:38.691Z,12.91
2022-10-04T05:32:33.944Z,13.07
2022-10-04T05:35:01.743Z,13.08
2022-10-04T05:37:50.976Z,13.01
2022-10-04T05:40:47.535Z,12.99
2022-10-04T05:43:40.879Z,13.03
2022-10-04T05:46:38.773Z,12.88
2022-10-04T05:49:18.882Z,12.94
2022-10-04T05:52:02.311Z,12.95
2022-10-04T05:54:33.317Z,12.99
2022-10-04T05:57:15.958Z,12.82
2022-10-04T05:59:46.471Z,12.80
2022-10-04T06:02:38.140Z,12.89
2022-10-04T06:05:17.944Z,12.85
2022-10-04T06:07:50.893Z,12.87
2022-10-04T06:10:37.132Z,12.99
2022-10-04T06:13:15.662Z,12.95
2022-10-04T06:15:52.044Z,12.73
2022-10-04T06:18:40.012Z,12.89
2022-10-04T06:21:18.665Z,13.02
2022-10-04T06:23:59.522Z,12.85
2022-10-04T06:26:33.359Z,12.17
2022-10-04T06:29:04.105Z,11.85
2022-10-04T06:31:45.282Z,12.29
2022-10-04T06:34:26.010Z,12.42
2022-10-04T06:37:17.590Z,12.32
2022-10-04T06:40:12.415Z,12.47
2022-10-04T06:43:15.177Z,12.39
2022-10-04T06:45:58.821Z,11.98
2022-10-04T06:48:26.068Z,12.30
2022-10-04T06:51:05.525Z,12.69
2022-10-04T06:53:55.004Z,12.99
2022-10-04T06:56:31.440Z,13.32
2022-10-04T06:59:14.455Z,13.27
2022-10-04T07:01:54.517Z,13.30
2022-10-04T07:04:27.793Z,13.32
2022-10-04T07:07:26.189Z,13.34
2022-10-04T07:10:00.309Z,13.31
2022-10-04T07:12:27.843Z,13.24
2022-10-04T07:15:00.233Z,13.30
2022-10-04T07:17:33.600Z,13.34
2022-10-04T07:20:01.429Z,13.41
2022-10-04T07:22:34.618Z,13.41
2022-10-04T07:25:08.329Z,13.27
2022-10-04T07:28:23.290Z,13.15
2022-10-04T07:31:04.048Z,13.05
2022-10-04T07:33:43.177Z,13.25
2022-10-04T07:36:13.463Z,13.34
2022-10-04T07:39:01.851Z,13.38
2022-10-04T07:41:35.282Z,13.47
2022-10-04T07:44:39.671Z,13.50
2022-10-04T07:47:20.189Z,13.56
2022-10-04T07:49:50.930Z,13.62
2022-10-04T07:52:48.161Z,13.56
2022-10-04T07:55:21.890Z,13.37
2022-10-04T07:58:08.040Z,13.44
2022-10-04T08:00:44.326Z,13.57
2022-10-04T08:03:30.020Z,13.62
2022-10-04T08:06:06.398Z,13.72
2022-10-04T08:08:51.857Z,13.53
2022-10-04T08:11:37.747Z,13.71
2022-10-04T08:14:42.511Z,13.79
2022-10-04T08:17:16.015Z,13.77
2022-10-04T08:20:23.983Z,13.71
2022-10-04T08:23:16.495Z,12.96
2022-10-04T08:25:49.927Z,13.43
2022-10-04T08:29:02.795Z,13.64
2022-10-04T08:32:05.493Z,13.77
2022-10-04T08:34:36.353Z,13.85
2022-10-04T08:37:28.555Z,13.93
2022-10-04T08:40:13.395Z,13.93
2022-10-04T08:43:02.390Z,14.04
2022-10-04T08:45:37.730Z,14.09
2022-10-04T08:48:46.263Z,14.05
2022-10-04T08:51:35.267Z,14.01
2022-10-04T08:54:38.034Z,13.97
2022-10-04T08:57:15.619Z,14.00
2022-10-04T09:00:08.841Z,14.15
2022-10-04T09:02:54.409Z,14.27
2022-10-04T09:05:45.517Z,14.16
2022-10-04T09:08:50.569Z,14.36
2022-10-04T09:11:42.005Z,14.50
2022-10-04T09:14:27.791Z,14.48
2022-10-04T09:17:21.830Z,14.60
2022-10-04T09:20:19.568Z,14.60
2022-10-04T09:22:48.336Z,14.51
2022-10-04T09:25:23.363Z,14.55
2022-10-04T09:27:59.516Z,14.70
2022-10-04T09:30:44.123Z,14.77
2022-10-04T09:33:26.276Z,14.81
2022-10-04T09:36:31.791Z,14.63
2022-10-04T09:39:29.957Z,13.99
2022-10-04T09:42:08.271Z,14.34
2022-10-04T09:44:56.767Z,14.58
2022-10-04T09:47:45.807Z,14.82
2022-10-04T09:50:35.550Z,14.78
2022-10-04T09:53:06.473Z,14.69
2022-10-04T09:55:46.698Z,14.87
2022-10-04T09:58:29.965Z,14.96
2022-10-04T10:01:17.101Z,15.09
2022-10-04T10:04:08.474Z,15.05
2022-10-04T10:06:46.661Z,15.16
2022-10-04T10:09:43.078Z,15.20
2022-10-04T10:12:35.254Z,15.05
2022-10-04T10:15:17.979Z,14.95
2022-10-04T10:18:16.122Z,15.21
2022-10-04T10:21:07.142Z,15.35
2022-10-04T10:23:46.128Z,15.29
2022-10-04T10:26:37.439Z,15.42
2022-10-04T10:29:42.338Z,15.29
2022-10-04T10:32:34.019Z,15.41
2022-10-04T10:35:13.654Z,15.69
2022-10-04T10:38:20.545Z,15.67
2022-10-04T10:40:58.388Z,15.58
2022-10-04T10:43:50.499Z,15.89
2022-10-04T10:46:39.690Z,15.92
2022-10-04T10:49:23.282Z,15.70
2022-10-04T10:52:10.785Z,15.93
2022-10-04T10:55:09.095Z,16.09
2022-10-04T10:57:48.794Z,15.83
2022-10-04T11:00:30.538Z,15.63
2022-10-04T11:03:15.193Z,15.83
2022-10-04T11:06:08.989Z,15.94
2022-10-04T11:09:25.240Z,16.10
2022-10-04T11:12:05.856Z,16.21
2022-10-04T11:15:15.130Z,16.34
2022-10-04T11:18:09.253Z,16.53
2022-10-04T11:21:14.147Z,16.78
2022-10-04T11:24:14.155Z,16.86
2022-10-04T11:27:05.819Z,16.88
2022-10-04T11:30:02.554Z,16.86
2022-10-04T11:33:09.316Z,16.99
2022-10-04T11:35:46.115Z,16.93
2022-10-04T11:38:31.625Z,16.91
2022-10-04T11:41:11.048Z,16.96
2022-10-04T11:44:15.939Z,16.98
2022-10-04T11:47:08.674Z,17.11
2022-10-04T11:49:57.907Z,17.14
2022-10-04T11:52:43.851Z,17.02
2022-10-04T11:55:38.367Z,17.03
2022-10-04T11:58:13.356Z,17.06
2022-10-04T12:00:46.508Z,17.52
2022-10-04T12:03:28.909Z,17.33
2022-10-04T12:06:22.269Z,17.27
2022-10-04T12:09:05.340Z,17.46
2022-10-04T12:12:05.947Z,17.71
2022-10-04T12:14:38.803Z,17.85
2022-10-04T12:17:25.423Z,17.73
2022-10-04T12:20:40.657Z,17.74
2022-10-04T12:23:11.175Z,17.79
2022-10-04T12:26:08.323Z,17.79
2022-10-04T12:28:54.271Z,18.16
2022-10-04T12:31:35.322Z,18.26
2022-10-04T12:34:16.723Z,18.60
2022-10-04T12:37:11.426Z,18.17
2022-10-04T12:39:51.071Z,17.88
2022-10-04T12:42:32.672Z,17.94
2022-10-04T12:45:30.228Z,18.08
2022-10-04T12:48:09.590Z,18.17
2022-10-04T12:50:45.657Z,18.33
2022-10-04T12:53:32.124Z,18.40
2022-10-04T12:55:59.365Z,18.28
2022-10-04T12:58:49.721Z,18.32
2022-10-04T13:01:42.196Z,18.26
2022-10-04T13:04:31.676Z,18.15
2022-10-04T13:07:09.098Z,18.23
2022-10-04T13:10:05.395Z,18.22
2022-10-04T13:13:05.544Z,18.75
2022-10-04T13:18:46.336Z,18.81
2022-10-04T13:21:25.054Z,19.14
2022-10-04T13:24:31.604Z,19.20
2022-10-04T13:27:07.682Z,19.29
2022-10-04T13:29:50.501Z,19.56
2022-10-04T13:32:27.747Z,19.58
2022-10-04T13:35:04.581Z,19.47
2022-10-04T13:37:44.989Z,19.10
2022-10-04T13:40:24.256Z,19.24
2022-10-04T13:42:54.596Z,19.03
2022-10-04T13:45:40.111Z,19.44
2022-10-04T13:48:26.017Z,19.35
2022-10-04T13:51:20.074Z,19.53
2022-10-04T13:54:24.565Z,19.34
2022-10-04T13:57:24.213Z,19.50
2022-10-04T14:00:01.995Z,19.72
2022-10-04T14:02:55.217Z,19.78
2022-10-04T14:05:40.452Z,19.46
2022-10-04T14:08:26.506Z,19.43
2022-10-04T14:10:59.607Z,19.54
2022-10-04T14:13:48.857Z,19.71
2022-10-04T14:16:56.234Z,19.58
2022-10-04T14:19:58.272Z,19.65
2022-10-04T14:22:36.432Z,19.67
2022-10-04T14:25:09.518Z,19.49
2022-10-04T14:28:14.641Z,19.33
2022-10-04T14:31:17.883Z,19.71
2022-10-04T14:34:03.735Z,19.64
2022-10-04T14:36:45.441Z,19.93
2022-10-04T14:39:45.082Z,20.01
2022-10-04T14:42:18.286Z,20.11
2022-10-04T14:45:13.828Z,20.17
2022-10-04T14:48:00.044Z,20.26
2022-10-04T14:50:33.500Z,20.08
2022-10-04T14:53:04.869Z,20.08
2022-10-04T14:55:50.984Z,20.01
2022-10-04T14:58:52.962Z,20.32
2022-10-04T15:01:28.471Z,20.45
2022-10-04T15:04:11.947Z,20.25
2022-10-04T15:06:54.685Z,20.32
2022-10-04T15:09:56.118Z,20.63
2022-10-04T15:12:40.790Z,20.28
2022-10-04T15:15:14.308Z,20.26
2022-10-04T15:17:47.416Z,20.35
2022-10-04T15:20:28.837Z,20.34
2022-10-04T15:23:08.851Z,20.10
2022-10-04T15:25:36.084Z,20.10
2022-10-04T15:28:07.107Z,20.09
2022-10-04T15:31:12.615Z,20.41
2022-10-04T15:34:03.249Z,20.40
2022-10-04T15:36:40.037Z,20.36
2022-10-04T15:39:44.491Z,20.15
2022-10-04T15:42:16.461Z,19.87
2022-10-04T15:45:16.875Z,20.11
2022-10-04T15:48:21.692Z,20.78
2022-10-04T15:51:13.904Z,20.37
2022-10-04T15:54:03.123Z,20.07
2022-10-04T15:56:51.606Z,20.28
2022-10-04T15:59:42.539Z,19.97
2022-10-04T16:02:48.970Z,20.03
2022-10-04T16:05:45.589Z,19.97
2022-10-04T16:08:27.549Z,20.02
2022-10-04T16:11:13.043Z,20.06
2022-10-04T16:14:15.715Z,19.88
2022-10-04T16:17:02.157Z,19.90
2022-10-04T16:19:52.459Z,19.78
2022-10-04T16:22:29.967Z,19.87
2022-10-04T16:25:26.813Z,20.00
2022-10-04T16:27:56.800Z,19.90
2022-10-04T16:30:32.755Z,19.71
2022-10-04T16:33:12.809Z,19.84
2022-10-04T16:35:44.334Z,20.19
2022-10-04T16:38:24.803Z,20.19
2022-10-04T16:40:52.001Z,20.02
2022-10-04T16:43:19.165Z,19.67
2022-10-04T16:45:52.461Z,19.81
2022-10-04T16:48:50.967Z,19.67
2022-10-04T16:51:18.146Z,19.56
2022-10-04T16:53:54.451Z,19.51
2022-10-04T16:56:24.114Z,19.40
2022-10-04T16:59:10.245Z,19.32
2022-10-04T17:01:43.966Z,19.34
2022-10-04T17:04:36.843Z,19.30
2022-10-04T17:07:12.155Z,19.39
2022-10-04T17:09:58.046Z,19.29
2022-10-04T17:12:59.225Z,19.18
2022-10-04T17:15:47.978Z,19.16
2022-10-04T17:18:26.284Z,19.00
2022-10-04T17:21:04.099Z,19.09
2022-10-04T17:24:08.896Z,19.01
2022-10-04T17:26:52.355Z,19.00
2022-10-04T17:29:25.560Z,19.01
2022-10-04T17:32:17.475Z,19.03
2022-10-04T17:35:16.123Z,19.05
2022-10-04T17:38:07.625Z,18.94
2022-10-04T17:40:55.887Z,18.85
2022-10-04T17:43:27.744Z,18.90
2022-10-04T17:46:17.602Z,18.82
2022-10-04T17:49:35.915Z,18.66
2022-10-04T17:52:23.213Z,18.66
2022-10-04T17:55:11.676Z,18.61
2022-10-04T17:57:48.162Z,18.71
2022-10-04T18:00:18.283Z,18.65
2022-10-04T18:02:49.490Z,18.60
2022-10-04T18:05:41.282Z,18.67
2022-10-04T18:08:20.236Z,18.51
2022-10-04T18:11:03.678Z,18.53
2022-10-04T18:13:44.828Z,18.49
2022-10-04T18:16:26.714Z,18.56
2022-10-04T18:18:54.172Z,18.49
2022-10-04T18:21:30.413Z,18.53
2022-10-04T18:24:16.337Z,18.60
2022-10-04T18:26:59.861Z,18.51
2022-10-04T18:29:45.102Z,18.41
2022-10-04T18:32:30.720Z,18.41
2022-10-04T18:35:00.026Z,18.43
2022-10-04T18:37:37.479Z,18.40
2022-10-04T18:40:42.087Z,18.42
2022-10-04T18:43:30.429Z,18.37
2022-10-04T18:46:06.839Z,18.37
2022-10-04T18:48:40.710Z,18.39
2022-10-04T18:51:28.417Z,18.30
2022-10-04T18:54:26.254Z,18.30
2022-10-04T18:57:24.363Z,18.31
2022-10-04T19:00:29.150Z,18.23
2022-10-04T19:03:09.309Z,18.11
2022-10-04T19:05:52.393Z,18.14
2022-10-04T19:08:21.771Z,18.12
2022-10-04T19:10:51.636Z,18.12
2022-10-04T19:13:28.715Z,18.05
2022-10-04T19:16:36.417Z,18.10
2022-10-04T19:19:34.669Z,18.12
2022-10-04T19:22:11.198Z,18.10
2022-10-04T19:25:01.292Z,18.09
2022-10-04T19:27:36.592Z,18.06
2022-10-04T19:30:12.760Z,17.98
2022-10-04T19:32:47.209Z,17.96
2022-10-04T19:35:20.742Z,17.97
2022-10-04T19:38:20.095Z,18.10
2022-10-04T19:40:51.461Z,18.09
2022-10-04T19:43:42.937Z,18.14
2022-10-04T19:46:22.282Z,18.13
2022-10-04T19:48:51.253Z,18.16
2022-10-04T19:51:43.315Z,18.09
2022-10-04T19:54:16.196Z,18.12
2022-10-04T19:56:49.034Z,18.11
2022-10-04T19:59:26.718Z,18.14
2022-10-04T20:01:54.033Z,18.20
2022-10-04T20:04:42.180Z,18.16
2022-10-04T20:07:27.445Z,18.15
2022-10-04T20:10:16.424Z,18.11
2022-10-04T20:13:13.592Z,18.14
2022-10-04T20:15:55.398Z,18.56
2022-10-04T20:18:41.919Z,18.51
2022-10-04T20:21:10.506Z,19.09
2022-10-04T20:23:40.702Z,18.58
2022-10-04T20:26:08.420Z,18.59
2022-10-04T20:28:41.989Z,18.60
2022-10-04T20:31:11.654Z,18.40
2022-10-04T20:33:49.899Z,18.30
2022-10-04T20:36:20.565Z,18.24
2022-10-04T20:39:01.533Z,18.22
2022-10-04T20:41:28.789Z,18.52
2022-10-04T20:43:58.032Z,18.46
2022-10-04T20:46:26.451Z,18.42
2022-10-04T20:48:55.247Z,18.26
2022-10-04T20:51:24.213Z,18.20
2022-10-04T20:53:51.761Z,18.20
2022-10-04T20:56:33.285Z,18.15
2022-10-04T20:59:01.674Z,18.12
2022-10-04T21:01:37.445Z,18.09
2022-10-04T21:04:18.085Z,18.07
2022-10-04T21:06:51.474Z,18.01
2022-10-04T21:09:18.914Z,17.99
2022-10-04T21:11:48.258Z,17.90
2022-10-04T21:14:41.503Z,17.91
2022-10-04T21:17:30.564Z,17.98
2022-10-04T21:19:58.446Z,17.98
2022-10-04T21:22:25.560Z,17.99
2022-10-04T21:24:58.443Z,17.94
2022-10-04T21:27:37.230Z,17.86
2022-10-04T21:30:14.353Z,17.74
2022-10-04T21:32:41.809Z,17.76
2022-10-04T21:35:10.039Z,17.79
2022-10-04T21:37:37.397Z,17.68
2022-10-04T21:40:06.159Z,17.70
2022-10-04T21:42:33.599Z,17.76
2022-10-04T21:45:00.926Z,17.74
2022-10-04T21:47:28.209Z,17.74
2022-10-04T21:49:55.831Z,17.73
2022-10-04T21:52:23.282Z,17.88
2022-10-04T21:54:50.677Z,17.80
2022-10-04T21:57:17.819Z,17.75
2022-10-04T21:59:45.077Z,17.71
2022-10-04T22:02:12.335Z,17.73
2022-10-04T22:04:40.275Z,17.72
2022-10-04T22:07:07.566Z,17.79
2022-10-04T22:09:36.338Z,17.76
2022-10-04T22:12:03.613Z,17.80
2022-10-04T22:14:30.790Z,17.75
2022-10-04T22:16:58.049Z,17.71
2022-10-04T22:19:25.293Z,17.70
2022-10-04T22:21:52.514Z,17.63
2022-10-04T22:24:20.781Z,17.61
2022-10-04T22:26:48.943Z,17.64
2022-10-04T22:29:17.577Z,17.65
2022-10-04T22:31:47.061Z,17.65
2022-10-04T22:34:20.359Z,17.69
2022-10-04T22:36:49.213Z,17.58
2022-10-04T22:39:20.481Z,17.60
2022-10-04T22:41:52.555Z,17.57
2022-10-04T22:44:22.083Z,17.55
2022-10-04T22:46:52.318Z,17.60
2022-10-04T22:49:24.064Z,17.53
2022-10-04T22:51:52.755Z,17.45
2022-10-04T22:54:22.945Z,17.46
2022-10-04T22:56:50.847Z,17.39
2022-10-04T22:59:22.547Z,17.37
2022-10-04T23:01:49.901Z,17.39
2022-10-04T23:04:22.590Z,17.32
2022-10-04T23:06:50.729Z,17.32
2022-10-04T23:09:18.580Z,17.29
2022-10-04T23:11:46.074Z,17.29
2022-10-04T23:14:13.219Z,17.30
2022-10-04T23:16:40.750Z,17.27
2022-10-04T23:19:18.657Z,17.24
2022-10-04T23:21:49.846Z,17.17
2022-10-04T23:24:19.879Z,17.12
2022-10-04T23:26:49.515Z,17.11
2022-10-04T23:29:16.751Z,17.11
2022-10-04T23:31:46.240Z,17.09
2022-10-04T23:34:18.149Z,17.08
2022-10-04T23:36:47.100Z,17.01
2022-10-04T23:39:22.892Z,17.05
2022-10-04T23:41:50.224Z,17.03
2022-10-04T23:44:17.561Z,17.00
2022-10-04T23:46:45.254Z,17.03
2022-10-04T23:49:15.682Z,16.97
2022-10-04T23:51:44.123Z,16.93
2022-10-04T23:54:17.233Z,16.84
2022-10-04T23:56:46.053Z,16.86
2022-10-04T23:59:17.968Z,16.93
